createdAt,value
2022-12-20T00:00:19.234Z,1.95
2022-12-20T00:02:47.887Z,0.90
2022-12-20T00:05:17.914Z,1.10
2022-12-20T00:07:46.551Z,0.38
2022-12-20T00:10:15.138Z,0.57
2022-12-20T00:12:45.830Z,0.50
2022-12-20T00:15:14.199Z,0.60
2022-12-20T00:17:42.708Z,0.93
2022-12-20T00:20:11.912Z,1.33
2022-12-20T00:22:44.865Z,1.42
2022-12-20T00:25:13.292Z,0.60
2022-12-20T00:27:43.879Z,0.88
2022-12-20T00:30:12.861Z,0.73
2022-12-20T00:32:41.351Z,1.42
2022-12-20T00:35:10.106Z,0.57
2022-12-20T00:37:38.723Z,1.05
2022-12-20T00:40:12.157Z,0.90
2022-12-20T00:42:40.642Z,0.80
2022-12-20T00:45:09.484Z,0.70
2022-12-20T00:47:37.969Z,0.95
2022-12-20T00:50:09.389Z,1.05
2022-12-20T00:52:38.094Z,1.05
2022-12-20T00:55:08.419Z,0.60
2022-12-20T00:57:36.839Z,1.67
2022-12-20T01:00:07.513Z,0.32
2022-12-20T01:02:36.030Z,1.15
2022-12-20T01:05:04.676Z,1.00
2022-12-20T01:07:33.059Z,0.40
2022-12-20T01:10:09.838Z,0.85
2022-12-20T01:12:38.738Z,0.30
2022-12-20T01:15:07.963Z,1.05
2022-12-20T01:17:39.188Z,0.45
2022-12-20T01:20:08.603Z,1.42
2022-12-20T01:22:41.045Z,0.43
2022-12-20T01:25:17.001Z,1.13
2022-12-20T01:27:45.421Z,1.42
2022-12-20T01:30:14.476Z,0.68
2022-12-20T01:32:42.929Z,0.70
2022-12-20T01:35:12.920Z,0.40
2022-12-20T01:37:41.475Z,0.88
2022-12-20T01:40:11.451Z,0.75
2022-12-20T01:42:41.407Z,0.52
2022-12-20T01:45:13.596Z,0.50
2022-12-20T01:47:42.157Z,0.65
2022-12-20T01:50:10.976Z,1.10
2022-12-20T01:52:45.862Z,0.38
2022-12-20T01:55:15.635Z,1.02
2022-12-20T01:57:48.423Z,0.68
2022-12-20T02:00:17.472Z,0.90
2022-12-20T02:02:47.268Z,0.25
2022-12-20T02:05:16.281Z,1.15
2022-12-20T02:07:45.777Z,0.82
2022-12-20T02:10:14.568Z,0.55
2022-12-20T02:12:44.080Z,0.60
2022-12-20T02:15:23.436Z,1.27
2022-12-20T02:17:56.100Z,0.43
2022-12-20T02:20:49.199Z,0.77
2022-12-20T02:23:46.280Z,1.17
2022-12-20T02:26:25.919Z,0.65
2022-12-20T02:29:01.678Z,0.60
2022-12-20T02:31:35.724Z,0.73
2022-12-20T02:34:05.441Z,0.88
2022-12-20T02:36:33.789Z,0.73
2022-12-20T02:39:02.328Z,0.47
2022-12-20T02:41:36.034Z,0.50
2022-12-20T02:44:22.787Z,1.23
2022-12-20T02:46:56.572Z,0.70
2022-12-20T02:49:27.731Z,0.60
2022-12-20T02:51:56.579Z,0.40
2022-12-20T02:54:25.536Z,0.35
2022-12-20T02:56:56.245Z,0.47
2022-12-20T02:59:26.694Z,0.38
2022-12-20T03:01:57.365Z,0.65
2022-12-20T03:04:27.168Z,0.75
2022-12-20T03:06:59.495Z,0.30
2022-12-20T03:09:27.853Z,0.55
2022-12-20T03:11:59.216Z,1.25
2022-12-20T03:14:27.606Z,0.20
2022-12-20T03:16:57.479Z,0.70
2022-12-20T03:19:26.235Z,0.80
2022-12-20T03:21:54.692Z,0.63
2022-12-20T03:24:23.232Z,1.80
2022-12-20T03:26:51.625Z,0.50
2022-12-20T03:29:20.091Z,1.05
2022-12-20T03:31:48.558Z,1.17
2022-12-20T03:34:18.278Z,0.57
2022-12-20T03:36:46.618Z,0.30
2022-12-20T03:39:17.502Z,0.85
2022-12-20T03:41:46.260Z,0.73
2022-12-20T03:44:14.807Z,0.95
2022-12-20T03:46:43.199Z,0.70
2022-12-20T03:49:11.679Z,1.10
2022-12-20T03:51:44.422Z,0.80
2022-12-20T03:54:12.995Z,1.42
2022-12-20T03:56:43.525Z,0.70
2022-12-20T03:59:13.904Z,0.50
2022-12-20T04:01:45.309Z,0.80
2022-12-20T04:04:14.734Z,0.60
2022-12-20T04:06:44.644Z,0.22
2022-12-20T04:09:12.998Z,0.40
2022-12-20T04:11:41.361Z,0.43
2022-12-20T04:14:09.744Z,0.55
2022-12-20T04:16:40.617Z,0.40
2022-12-20T04:19:09.024Z,1.20
2022-12-20T04:21:37.498Z,0.30
2022-12-20T04:24:08.036Z,0.85
2022-12-20T04:26:36.755Z,0.50
2022-12-20T04:29:05.632Z,0.50
2022-12-20T04:31:34.071Z,0.20
2022-12-20T04:34:02.592Z,1.25
2022-12-20T04:36:34.218Z,0.82
2022-12-20T04:39:02.724Z,1.13
2022-12-20T04:41:32.485Z,0.50
2022-12-20T04:44:01.099Z,0.57
2022-12-20T04:46:29.626Z,0.40
2022-12-20T04:48:59.668Z,0.50
2022-12-20T04:51:28.774Z,0.25
2022-12-20T04:53:56.261Z,0.35
2022-12-20T04:56:25.747Z,1.85
2022-12-20T04:58:59.477Z,0.20
2022-12-20T05:01:28.173Z,0.47
2022-12-20T05:04:00.022Z,0.88
2022-12-20T05:06:28.554Z,0.55
2022-12-20T05:08:56.933Z,0.35
2022-12-20T05:11:25.387Z,0.80
2022-12-20T05:13:58.391Z,0.63
2022-12-20T05:16:26.958Z,0.55
2022-12-20T05:18:55.587Z,0.20
2022-12-20T05:21:41.565Z,0.55
2022-12-20T05:24:32.551Z,0.32
2022-12-20T05:27:01.001Z,0.77
2022-12-20T05:29:30.847Z,0.43
2022-12-20T05:31:59.388Z,0.55
2022-12-20T05:34:30.839Z,0.30
2022-12-20T05:36:59.184Z,0.35
2022-12-20T05:39:28.187Z,0.50
2022-12-20T05:41:56.817Z,0.50
2022-12-20T05:44:25.202Z,0.15
2022-12-20T05:46:58.265Z,0.50
2022-12-20T05:49:28.622Z,0.20
2022-12-20T05:51:57.000Z,0.40
2022-12-20T05:54:26.189Z,0.20
2022-12-20T05:56:57.454Z,0.85
2022-12-20T05:59:29.238Z,0.60
2022-12-20T06:01:59.989Z,0.45
2022-12-20T06:04:29.443Z,0.30
2022-12-20T06:07:00.641Z,0.20
2022-12-20T06:09:33.585Z,0.63
2022-12-20T06:12:03.189Z,0.60
2022-12-20T06:14:39.173Z,0.57
2022-12-20T06:17:10.367Z,0.57
2022-12-20T06:19:40.145Z,0.47
2022-12-20T06:22:13.669Z,0.82
2022-12-20T06:24:47.887Z,0.22
2022-12-20T06:27:18.726Z,0.20
2022-12-20T06:29:51.938Z,0.30
2022-12-20T06:32:23.630Z,0.30
2022-12-20T06:37:50.143Z,0.28
2022-12-20T06:40:18.897Z,0.30
2022-12-20T06:45:45.058Z,0.17
2022-12-20T06:48:16.392Z,0.28
2022-12-20T06:50:55.297Z,0.40
2022-12-20T06:53:24.513Z,0.90
2022-12-20T06:55:53.429Z,0.40
2022-12-20T06:58:22.591Z,0.30
2022-12-20T07:03:35.228Z,0.32
2022-12-20T07:06:03.817Z,0.50
2022-12-20T07:08:32.354Z,0.68
2022-12-20T07:11:05.568Z,0.30
2022-12-20T07:13:34.085Z,0.55
2022-12-20T07:16:02.943Z,0.88
2022-12-20T07:18:31.471Z,0.60
2022-12-20T07:21:03.067Z,0.38
2022-12-20T07:23:31.571Z,0.40
2022-12-20T07:26:01.099Z,0.40
2022-12-20T07:28:29.988Z,0.30
2022-12-20T07:31:02.501Z,0.25
2022-12-20T07:33:31.164Z,0.20
2022-12-20T07:36:03.862Z,0.32
2022-12-20T07:38:32.284Z,0.38
2022-12-20T07:41:00.783Z,0.50
2022-12-20T07:43:29.749Z,0.30
2022-12-20T07:45:58.547Z,0.30
2022-12-20T07:48:27.183Z,0.32
2022-12-20T07:50:58.680Z,0.38
2022-12-20T07:53:29.152Z,0.30
2022-12-20T07:55:58.122Z,0.50
2022-12-20T07:58:27.332Z,0.30
2022-12-20T08:00:56.097Z,0.30
2022-12-20T08:03:25.677Z,0.40
2022-12-20T08:05:56.490Z,0.73
2022-12-20T08:08:25.257Z,0.50
2022-12-20T08:10:55.544Z,0.25
2022-12-20T08:13:24.195Z,0.30
2022-12-20T08:15:52.628Z,0.32
2022-12-20T08:18:21.084Z,0.20
2022-12-20T08:20:49.499Z,0.47
2022-12-20T08:23:17.847Z,0.38
2022-12-20T08:25:46.309Z,0.45
2022-12-20T08:28:16.082Z,0.40
2022-12-20T08:30:44.493Z,0.30
2022-12-20T08:33:12.905Z,0.73
2022-12-20T08:35:41.748Z,0.43
2022-12-20T08:38:10.291Z,0.20
2022-12-20T08:40:38.704Z,0.30
2022-12-20T08:43:10.366Z,0.20
2022-12-20T08:45:40.451Z,0.28
2022-12-20T08:48:08.801Z,0.50
2022-12-20T08:50:37.359Z,0.50
2022-12-20T08:53:05.674Z,0.47
2022-12-20T08:55:34.053Z,0.25
2022-12-20T08:58:02.483Z,0.35
2022-12-20T09:00:31.022Z,0.30
2022-12-20T09:03:01.146Z,0.40
2022-12-20T09:05:29.628Z,0.25
2022-12-20T09:07:58.289Z,0.30
2022-12-20T09:10:26.698Z,0.57
2022-12-20T09:12:56.179Z,0.25
2022-12-20T09:15:26.725Z,0.30
2022-12-20T09:17:55.532Z,0.90
2022-12-20T09:20:26.001Z,0.20
2022-12-20T09:22:54.423Z,0.20
2022-12-20T09:25:23.140Z,0.28
2022-12-20T09:27:51.692Z,1.00
2022-12-20T09:30:20.213Z,0.85
2022-12-20T09:32:48.601Z,0.60
2022-12-20T09:35:22.814Z,0.70
2022-12-20T09:37:53.051Z,0.35
2022-12-20T09:40:22.421Z,0.60
2022-12-20T09:42:51.937Z,0.50
2022-12-20T09:45:22.787Z,0.35
2022-12-20T09:47:52.370Z,0.77
2022-12-20T09:50:22.461Z,0.38
2022-12-20T09:52:57.629Z,0.10
2022-12-20T09:55:29.000Z,0.77
2022-12-20T09:58:02.090Z,0.57
2022-12-20T10:00:30.754Z,0.30
2022-12-20T10:03:08.810Z,0.43
2022-12-20T10:05:42.247Z,0.50
2022-12-20T10:08:17.424Z,0.40
2022-12-20T10:10:53.952Z,0.55
2022-12-20T10:13:27.990Z,0.25
2022-12-20T10:16:00.498Z,0.55
2022-12-20T10:18:36.090Z,0.35
2022-12-20T10:21:09.485Z,0.52
2022-12-20T10:23:42.457Z,0.68
2022-12-20T10:26:12.030Z,0.25
2022-12-20T10:28:40.994Z,0.40
2022-12-20T10:31:13.036Z,0.95
2022-12-20T10:33:42.516Z,0.50
2022-12-20T10:36:20.759Z,0.20
2022-12-20T10:38:51.579Z,0.20
2022-12-20T10:41:22.957Z,0.40
2022-12-20T10:43:53.901Z,0.28
2022-12-20T10:46:22.463Z,0.43
2022-12-20T10:48:51.645Z,0.63
2022-12-20T10:51:21.298Z,0.50
2022-12-20T10:53:58.980Z,0.60
2022-12-20T10:56:29.067Z,0.63
2022-12-20T10:58:58.664Z,0.60
2022-12-20T11:01:29.222Z,1.13
2022-12-20T11:03:59.180Z,1.60
2022-12-20T11:06:29.188Z,0.77
2022-12-20T11:09:12.397Z,0.82
2022-12-20T11:11:53.341Z,0.60
2022-12-20T11:14:22.143Z,0.60
2022-12-20T11:16:52.835Z,0.63
2022-12-20T11:19:40.736Z,0.80
2022-12-20T11:22:13.984Z,0.60
2022-12-20T11:24:47.121Z,0.45
2022-12-20T11:27:18.465Z,0.30
2022-12-20T11:29:56.118Z,0.63
2022-12-20T11:32:30.734Z,0.85
2022-12-20T11:35:03.382Z,1.00
2022-12-20T11:37:34.461Z,0.77
2022-12-20T11:40:06.088Z,0.95
2022-12-20T11:42:43.009Z,1.00
2022-12-20T11:45:17.334Z,0.77
2022-12-20T11:47:53.877Z,0.68
2022-12-20T11:50:34.365Z,0.70
2022-12-20T11:53:06.072Z,0.57
2022-12-20T11:55:36.108Z,0.73
2022-12-20T11:58:20.361Z,0.57
2022-12-20T12:00:55.794Z,0.40
2022-12-20T12:03:29.010Z,1.05
2022-12-20T12:05:59.445Z,0.77
2022-12-20T12:08:29.736Z,1.85
2022-12-20T12:11:02.417Z,0.65
2022-12-20T12:13:33.090Z,0.30
2022-12-20T12:16:05.474Z,0.93
2022-12-20T12:18:36.167Z,0.40
2022-12-20T12:21:09.311Z,0.75
2022-12-20T12:26:13.943Z,0.32
2022-12-20T12:28:43.983Z,0.30
2022-12-20T12:31:15.615Z,0.85
2022-12-20T12:33:48.899Z,0.95
2022-12-20T12:36:41.459Z,0.52
2022-12-20T12:39:30.678Z,1.02
2022-12-20T12:42:28.799Z,0.43
2022-12-20T12:45:00.038Z,0.38
2022-12-20T12:47:35.374Z,0.73
2022-12-20T12:50:05.000Z,0.63
2022-12-20T12:52:46.173Z,0.70
2022-12-20T12:55:33.734Z,0.63
2022-12-20T12:58:14.996Z,0.47
2022-12-20T13:00:51.831Z,1.27
2022-12-20T13:03:38.884Z,0.68
2022-12-20T13:06:27.326Z,0.30
2022-12-20T13:09:12.881Z,0.75
2022-12-20T13:11:46.959Z,0.85
2022-12-20T13:14:31.354Z,0.90
2022-12-20T13:17:18.283Z,0.93
2022-12-20T13:19:55.800Z,0.63
2022-12-20T13:22:24.688Z,0.68
2022-12-20T13:24:56.440Z,0.70
2022-12-20T13:27:26.301Z,1.00
2022-12-20T13:30:03.132Z,1.73
2022-12-20T13:32:50.050Z,0.52
2022-12-20T13:35:34.133Z,0.63
2022-12-20T13:38:04.756Z,0.95
2022-12-20T13:40:36.909Z,0.47
2022-12-20T13:43:09.807Z,0.88
2022-12-20T13:45:40.397Z,0.50
2022-12-20T13:48:11.727Z,0.88
2022-12-20T13:50:42.099Z,0.95
2022-12-20T13:53:18.260Z,1.17
2022-12-20T13:55:49.641Z,0.40
2022-12-20T13:58:18.998Z,0.88
2022-12-20T14:00:48.611Z,0.73
2022-12-20T14:03:21.745Z,0.80
2022-12-20T14:05:58.644Z,0.82
2022-12-20T14:08:28.645Z,1.75
2022-12-20T14:10:57.176Z,0.22
2022-12-20T14:13:26.864Z,1.38
2022-12-20T14:15:56.342Z,1.33
2022-12-20T14:18:25.802Z,1.15
2022-12-20T14:20:57.416Z,0.80
2022-12-20T14:23:27.787Z,0.63
2022-12-20T14:25:58.300Z,1.15
2022-12-20T14:28:31.214Z,0.68
2022-12-20T14:31:01.328Z,0.95
2022-12-20T14:33:31.884Z,1.05
2022-12-20T14:36:09.117Z,1.00
2022-12-20T14:38:37.508Z,2.13
2022-12-20T14:41:06.004Z,1.88
2022-12-20T14:43:35.945Z,1.08
2022-12-20T14:46:17.481Z,0.70
2022-12-20T14:48:46.015Z,1.25
2022-12-20T14:51:15.810Z,1.20
2022-12-20T14:53:47.539Z,1.35
2022-12-20T14:56:16.849Z,1.08
2022-12-20T14:58:45.196Z,2.22
2022-12-20T15:01:20.721Z,1.80
2022-12-20T15:03:53.793Z,0.82
2022-12-20T15:06:37.232Z,1.20
2022-12-20T15:09:06.730Z,2.28
2022-12-20T15:11:36.372Z,1.35
2022-12-20T15:14:05.465Z,2.03
2022-12-20T15:16:34.713Z,1.15
2022-12-20T15:19:04.276Z,2.22
2022-12-20T15:21:34.385Z,2.78
2022-12-20T15:24:07.823Z,2.00
2022-12-20T15:26:36.623Z,0.90
2022-12-20T15:29:06.010Z,1.00
2022-12-20T15:31:35.644Z,1.17
2022-12-20T15:34:05.921Z,1.25
2022-12-20T15:36:34.600Z,2.20
2022-12-20T15:39:13.410Z,1.58
2022-12-20T15:41:43.657Z,1.77
2022-12-20T15:44:15.473Z,1.17
2022-12-20T15:46:44.510Z,3.13
2022-12-20T15:49:17.025Z,1.33
2022-12-20T15:51:47.229Z,2.25
2022-12-20T15:54:21.433Z,1.90
2022-12-20T15:56:49.792Z,2.05
2022-12-20T15:59:57.549Z,2.05
2022-12-20T16:02:08.540Z,1.17
2022-12-20T16:04:37.066Z,1.23
2022-12-20T16:07:12.068Z,1.17
2022-12-20T16:09:42.190Z,1.00
2022-12-20T16:12:13.969Z,2.75
2022-12-20T16:14:42.539Z,2.58
2022-12-20T16:17:12.716Z,1.30
2022-12-20T16:19:41.133Z,1.88
2022-12-20T16:22:13.064Z,1.83
2022-12-20T16:24:43.638Z,2.03
2022-12-20T16:27:12.015Z,4.90
2022-12-20T16:29:41.478Z,2.42
2022-12-20T16:32:14.814Z,2.17
2022-12-20T16:34:43.301Z,2.75
2022-12-20T16:37:12.787Z,1.92
2022-12-20T16:39:41.289Z,2.47
2022-12-20T16:42:14.720Z,2.10
2022-12-20T16:44:45.326Z,3.15
2022-12-20T16:47:14.972Z,1.80
2022-12-20T16:49:51.777Z,2.17
2022-12-20T16:52:20.888Z,2.45
2022-12-20T16:54:49.763Z,2.28
2022-12-20T16:57:19.735Z,3.30
2022-12-20T16:59:48.406Z,2.63
2022-12-20T17:02:24.425Z,2.00
2022-12-20T17:04:53.365Z,2.35
2022-12-20T17:07:22.170Z,2.95
2022-12-20T17:09:50.649Z,2.63
2022-12-20T17:12:21.767Z,3.17
2022-12-20T17:14:50.903Z,2.70
2022-12-20T17:17:19.434Z,2.17
2022-12-20T17:19:48.048Z,2.25
2022-12-20T17:22:25.196Z,1.60
2022-12-20T17:24:53.617Z,2.97
2022-12-20T17:27:23.401Z,4.50
2022-12-20T17:29:52.248Z,2.10
2022-12-20T17:32:21.859Z,2.92
2022-12-20T17:34:50.768Z,2.55
2022-12-20T17:37:19.247Z,3.33
2022-12-20T17:39:47.856Z,2.45
2022-12-20T17:42:17.072Z,1.70
2022-12-20T17:44:47.217Z,1.38
2022-12-20T17:47:17.254Z,1.95
2022-12-20T17:49:45.853Z,2.65
2022-12-20T17:52:15.809Z,2.45
2022-12-20T17:54:44.631Z,4.00
2022-12-20T17:57:15.377Z,1.70
2022-12-20T17:59:44.046Z,1.73
2022-12-20T18:02:23.546Z,1.83
2022-12-20T18:04:52.314Z,1.85
2022-12-20T18:07:20.963Z,2.40
2022-12-20T18:09:49.471Z,1.75
2022-12-20T18:12:18.151Z,2.60
2022-12-20T18:14:46.718Z,2.53
2022-12-20T18:17:16.527Z,2.03
2022-12-20T18:19:46.561Z,1.85
2022-12-20T18:22:15.686Z,2.55
2022-12-20T18:24:44.472Z,3.03
2022-12-20T18:27:12.936Z,3.22
2022-12-20T18:29:41.326Z,3.58
2022-12-20T18:32:10.341Z,1.90
2022-12-20T18:34:39.250Z,2.80
2022-12-20T18:37:09.264Z,1.98
2022-12-20T18:39:37.875Z,2.92
2022-12-20T18:42:06.238Z,4.00
2022-12-20T18:44:36.277Z,2.47
2022-12-20T18:47:04.939Z,2.45
2022-12-20T18:49:33.338Z,3.50
2022-12-20T18:52:01.733Z,3.28
2022-12-20T18:54:31.613Z,2.85
2022-12-20T18:57:04.755Z,3.65
2022-12-20T18:59:33.729Z,3.08
2022-12-20T19:02:02.328Z,3.45
2022-12-20T19:04:31.337Z,3.35
2022-12-20T19:06:59.727Z,2.88
2022-12-20T19:09:28.064Z,2.65
2022-12-20T19:11:58.139Z,4.28
2022-12-20T19:14:27.054Z,2.85
2022-12-20T19:16:55.556Z,3.20
2022-12-20T19:19:24.006Z,2.72
2022-12-20T19:21:52.589Z,3.70
2022-12-20T19:24:21.412Z,2.65
2022-12-20T19:26:49.748Z,2.55
2022-12-20T19:29:19.554Z,2.55
2022-12-20T19:31:48.389Z,3.00
2022-12-20T19:34:16.986Z,3.53
2022-12-20T19:36:46.311Z,1.65
2022-12-20T19:39:16.062Z,3.28
2022-12-20T19:41:55.057Z,2.80
2022-12-20T19:44:30.029Z,4.35
2022-12-20T19:47:06.442Z,4.75
2022-12-20T19:49:35.526Z,3.53
2022-12-20T19:52:04.156Z,1.98
2022-12-20T19:54:32.889Z,2.78
2022-12-20T19:57:01.358Z,3.25
2022-12-20T19:59:31.435Z,3.67
2022-12-20T20:02:01.685Z,3.47
2022-12-20T20:04:30.401Z,2.97
2022-12-20T20:06:58.793Z,2.65
2022-12-20T20:09:27.249Z,3.08
2022-12-20T20:11:56.025Z,3.08
2022-12-20T20:14:24.502Z,2.92
2022-12-20T20:16:53.108Z,2.78
2022-12-20T20:19:23.015Z,2.95
2022-12-20T20:21:51.736Z,3.05
2022-12-20T20:24:20.800Z,3.03
2022-12-20T20:26:49.321Z,3.58
2022-12-20T20:29:17.885Z,2.47
2022-12-20T20:31:46.799Z,3.00
2022-12-20T20:34:15.461Z,2.90
2022-12-20T20:36:45.553Z,4.60
2022-12-20T20:39:13.905Z,3.03
2022-12-20T20:41:42.991Z,2.60
2022-12-20T20:44:12.790Z,3.42
2022-12-20T20:46:41.249Z,4.65
2022-12-20T20:49:09.937Z,2.80
2022-12-20T20:51:38.293Z,2.92
2022-12-20T20:54:08.528Z,1.73
2022-12-20T20:56:37.148Z,3.20
2022-12-20T20:59:09.258Z,2.97
2022-12-20T21:04:08.927Z,2.22
2022-12-20T21:06:41.675Z,2.95
2022-12-20T21:09:12.216Z,3.75
2022-12-20T21:11:41.032Z,3.28
2022-12-20T21:14:09.499Z,3.05
2022-12-20T21:16:37.973Z,2.15
2022-12-20T21:19:06.798Z,4.07
2022-12-20T21:21:35.247Z,3.53
2022-12-20T21:24:03.891Z,2.08
2022-12-20T21:26:36.000Z,4.07
2022-12-20T21:29:04.379Z,4.43
2022-12-20T21:31:32.719Z,4.35
2022-12-20T21:34:01.129Z,3.15
2022-12-20T21:36:30.838Z,3.28
2022-12-20T21:39:00.481Z,2.47
2022-12-20T21:41:30.547Z,3.58
2022-12-20T21:44:00.856Z,3.67
2022-12-20T21:46:31.983Z,2.38
2022-12-20T21:49:00.790Z,3.40
2022-12-20T21:51:31.021Z,2.70
2022-12-20T21:54:01.131Z,2.70
2022-12-20T21:56:30.746Z,3.35
2022-12-20T21:59:00.834Z,3.97
2022-12-20T22:01:30.059Z,3.05
2022-12-20T22:03:59.986Z,3.03
2022-12-20T22:06:29.331Z,3.28
2022-12-20T22:08:59.189Z,3.22
2022-12-20T22:11:27.813Z,3.03
2022-12-20T22:13:56.920Z,3.50
2022-12-20T22:16:29.253Z,3.20
2022-12-20T22:18:58.670Z,3.28
2022-12-20T22:21:28.092Z,3.15
2022-12-20T22:23:56.745Z,3.55
2022-12-20T22:26:25.949Z,2.63
2022-12-20T22:28:56.311Z,2.72
2022-12-20T22:31:25.992Z,4.03
2022-12-20T22:33:56.421Z,2.78
2022-12-20T22:36:24.934Z,3.65
2022-12-20T22:38:53.445Z,2.83
2022-12-20T22:41:22.586Z,3.17
2022-12-20T22:43:51.353Z,4.30
2022-12-20T22:46:20.143Z,3.45
2022-12-20T22:48:49.106Z,1.63
2022-12-20T22:51:19.893Z,4.28
2022-12-20T22:53:49.281Z,2.83
2022-12-20T22:56:18.811Z,1.42
2022-12-20T22:58:47.513Z,4.22
2022-12-20T23:01:17.038Z,2.97
2022-12-20T23:03:45.566Z,4.18
2022-12-20T23:06:14.719Z,3.70
2022-12-20T23:08:44.778Z,3.58
2022-12-20T23:11:33.735Z,4.03
2022-12-20T23:14:19.893Z,3.92
2022-12-20T23:16:48.542Z,2.70
2022-12-20T23:19:17.012Z,2.95
2022-12-20T23:22:03.202Z,2.58
2022-12-20T23:24:33.027Z,2.58
2022-12-20T23:27:02.125Z,2.70
2022-12-20T23:29:30.984Z,3.70
2022-12-20T23:31:59.732Z,3.80
2022-12-20T23:34:28.286Z,2.80
2022-12-20T23:36:56.606Z,3.50
2022-12-20T23:39:25.033Z,3.50
2022-12-20T23:41:54.978Z,2.97
2022-12-20T23:44:23.478Z,3.60
2022-12-20T23:46:51.823Z,2.53
2022-12-20T23:49:20.241Z,2.85
2022-12-20T23:51:48.959Z,2.92
2022-12-20T23:54:19.596Z,2.83
2022-12-20T23:56:48.096Z,2.75
2022-12-20T23:59:17.798Z,1.35
